Leonard, OK (74043)

2:24 PM CDT on September 01, 2015 (GMT -0500)
Pecan Grove | | Change Station
CLOSE
Current Station
Personal Weather Station
Location: Coweta, OK
Elevation: 720 ft
Nearby Weather Stations

Elev 720 ft 35.97 °N, 95.72 °W | Updated 1 second ago

Mostly Cloudy
Mostly Cloudy
88.8 °F
Feels Like 98 °F
N
1.0
Wind Variable Wind from South
Gusts 2.0 mph

Today
High -- | Low -- °F
--% Chance of Precip.
Yesterday
High -- | Low -- °F
Precip. -- in
6:54 AM 7:50 PM
Waning Gibbous, 87% visible
Pressure 30.03 in
Visibility 10.0 miles
Clouds Scattered Clouds 4700 ft
Mostly Cloudy 5500 ft
Heat Index 98 °F
Dew Point 75 °F
Humidity 63%
Rainfall 0.00 in
Snow Depth Not available.
UV 5 out of 12
Pollen 9.80 out of 12
Air Quality Not available.
Flu Activity Not available.
METAR KRVS 011853Z 17006KT 10SM SCT047 BKN055 32/21 A3002 RMK AO2 SLP167 T03220206
Pressure 30.03 in
Visibility 10.0 miles
Clouds Scattered Clouds 4700 ft
Mostly Cloudy 5500 ft
Heat Index 98 °F
Dew Point 75 °F
Humidity 63%
Rainfall 0.00 in
Snow Depth Not available.
UV 5 out of 12
Pollen 9.80 out of 12
Air Quality Not available.
Flu Activity Not available.
METAR KRVS 011853Z 17006KT 10SM SCT047 BKN055 32/21 A3002 RMK AO2 SLP167 T03220206

10-Day Weather Forecast

×

Almanac

Astronomy

Sep. 01, 2015 Rise Set
Actual Time
Civil Twilight
Nautical Twilight
Astronomical Twilight
Moon
Length of Visible Light
Length of Day
Tomorrow will be .
, % of the Moon is Illuminated

Today's Extremes

State Highs State Lows

Community

WunderPhotos

Upload Photos

1,851,596 photos uploaded!

WunderBlogs® & News

Nearby

Air Quality

  Air Quality AQ Index Pollutant
Not available.

Snow Depth

Station Depth Elevation

Earthquake Activity

City Distance Mag. Time & Date
Minimum magnitude displayed is 2.5.

Coastal Water Temperatures

Place Temperature

Stations

Nearby Weather Stations

Station Location Temp. Windchill Dew Point Humidity Wind Precip. Elev Updated Type